INFORMACIÓN METAR y TAF
METAR FOR LEVC
ADDS - METARS form results

(0751 UTC 24 April 2019)
Data provider http://aviationweather.gov/metar/data/
 
METAR text: LEVC 240730Z 23009KT 9999 FEW035 13/05 Q1010 NOSIG
Conditions at: LEVC (VALENCIA (CIV/MI, ES) observed 0730 UTC 24 April 2019
Temperature: 13.0°C (55°F)
Dewpoint: 5.0°C (41°F) [RH = 58%]
Pressure (altimeter): 29.82 inches Hg (1010.0 mb)
Winds: from the SW (230 degrees) at 10 MPH (9 knots; 4.6 m/s)
Visibility: 6 or more miles (10+ km)
Ceiling: at least 12,000 feet AGL
Clouds: few clouds at 3500 feet AGL
Weather: no significant weather observed at this time

METAR text: LEVC 240700Z 25008KT 9999 FEW035 12/05 Q1009 NOSIG
Conditions at: LEVC (VALENCIA (CIV/MI, ES) observed 0700 UTC 24 April 2019
Temperature: 12.0°C (54°F)
Dewpoint: 5.0°C (41°F) [RH = 62%]
Pressure (altimeter): 29.79 inches Hg (1009.0 mb)
Winds: from the WSW (250 degrees) at 9 MPH (8 knots; 4.1 m/s)
Visibility: 6 or more miles (10+ km)
Ceiling: at least 12,000 feet AGL
Clouds: few clouds at 3500 feet AGL
Weather: no significant weather observed at this time

Forecast for: LEVC (VALENCIA (CIV/MI, ES)
Text: TAF LEVC 240500Z 2406/2506 25004KT 9999 FEW020 TX22/2412Z TN07/2406Z
Forecast period: 0600 UTC 24 April 2019 to 0600 UTC 25 April 2019
Forecast type: FROM: standard forecast or significant change
Winds: from the WSW (250 degrees) at 5 MPH (4 knots; 2.1 m/s)
Visibility: 6 or more miles 10+ km)
Ceiling: at least 12,000 feet AGL
Clouds: few clouds at 2000 feet AGL
Weather: no significant weather forecast for this period
Text: BECMG 2406/2408 27012KT
Forecast period: 0600 UTC 24 April 2019 to 0600 UTC 25 April 2019
Forecast type: BECOMING: Conditions expected to become as follows by 0800 UTC 24 April 2019
Winds: from the W (270 degrees) at 14 MPH (12 knots; 6.2 m/s)
Visibility: 6 or more miles 10+ km)
Ceiling: at least 12,000 feet AGL
Clouds: few clouds at 2000 feet AGL
Weather: no significant weather forecast for this period

 MAPA DE AEROPUERTO

 INFORMACIÓN DE PISTA
Pista 04 Longitud 5394 ft Ancho 148 ft
Elevación 205 ft Umbral desplazado 0 ft Rumbo de pista 38
Pista 22 Longitud 5394 ft Ancho 148 ft
Elevación 188 ft Umbral desplazado 0 ft Rumbo de pista 218
Pista 12 Longitud 8858 ft Ancho 148 ft
Elevación 225 ft Umbral desplazado 0 ft Rumbo de pista 116
Pista 30 Longitud 8858 ft Ancho 148 ft
Elevación 172 ft Umbral desplazado 0 ft Rumbo de pista 296

 FRECUANCIAS DEL AEROPUERTO
Tipo APP Nombre APP Frecuencia 120.1 MHZ
Tipo ATIS Nombre ATIS Frecuencia 121.075 MHZ
Tipo GND Nombre GND Frecuencia 121.7 MHZ
Tipo TWR Nombre TWR Frecuencia 118.55 MHZ

 RADIO AYUDAS DEL AEROPUERTO
Tipo NDB Nombre Valencia Frecuencia 400 KHZ
Tipo NDB Nombre Valencia Frecuencia 340 KHZ
Tipo NDB Nombre Sagunto Frecuencia 356 KHZ
Tipo VOR-DME Nombre Valencia Frecuencia 116100 KHZ



Powered by Virtual Airlines Manager [v2.6.2]